Time;durP1;ratioP1;P1;durP2;ratioP2;P2;SDS_P1;SDS_P2;PMS_P1;PMS_P2;Temp;Humidity;BMP_temperature;BMP_pressure;BME280_temperature;BME280_humidity;BME280_pressure;Samples;Min_cycle;Max_cycle;Signal;HPM_P1;HPM_P2
2022/05/20 00:02:16;;;;;;;6.70;6.10;;;;;;;;;;4984701;28;20517;-74
2022/05/20 00:04:43;;;;;;;7.47;6.20;;;;;;;;;;4978564;28;20476;-74
2022/05/20 00:07:10;;;;;;;6.60;6.00;;;;;;;;;;4992578;28;20433;-74
2022/05/20 00:09:37;;;;;;;6.30;5.70;;;;;;;;;;4987248;28;20441;-75
2022/05/20 00:12:05;;;;;;;6.67;5.83;;;;;;;;;;4972840;28;20446;-74
2022/05/20 00:14:32;;;;;;;6.17;5.63;;;;;;;;;;4977234;28;20537;-75
2022/05/20 00:17:01;;;;;;;9.37;6.50;;;;;;;;;;4989866;28;20536;-74
2022/05/20 00:19:28;;;;;;;6.83;5.93;;;;;;;;;;4991744;28;20450;-75
2022/05/20 00:21:54;;;;;;;7.03;6.37;;;;;;;;;;4954296;28;20470;-74
2022/05/20 00:24:21;;;;;;;7.17;6.57;;;;;;;;;;4967744;28;20793;-74
2022/05/20 00:26:48;;;;;;;8.27;6.20;;;;;;;;;;4988193;28;20441;-74
2022/05/20 00:29:16;;;;;;;6.70;6.10;;;;;;;;;;4975532;28;20513;-74
2022/05/20 00:31:42;;;;;;;6.70;6.00;;;;;;;;;;4989973;28;20438;-74
2022/05/20 00:34:09;;;;;;;6.73;5.70;;;;;;;;;;4976021;28;20853;-74
2022/05/20 00:36:35;;;;;;;5.53;5.07;;;;;;;;;;4986368;28;20787;-75
2022/05/20 00:39:02;;;;;;;6.50;5.87;;;;;;;;;;4985254;28;20455;-74
2022/05/20 00:41:29;;;;;;;8.50;6.10;;;;;;;;;;4974404;28;20844;-74
2022/05/20 00:43:55;;;;;;;6.63;6.03;;;;;;;;;;4994580;28;20442;-75
2022/05/20 00:46:24;;;;;;;6.73;6.07;;;;;;;;;;4976926;28;20481;-74
2022/05/20 00:48:56;;;;;;;6.67;6.07;;;;;;;;;;4994483;28;20921;-74
2022/05/20 00:51:24;;;;;;;6.63;6.13;;;;;;;;;;4988528;28;20438;-74
2022/05/20 00:53:53;;;;;;;7.10;6.50;;;;;;;;;;4970614;28;20873;-75
2022/05/20 00:56:22;;;;;;;6.00;5.43;;;;;;;;;;4956258;28;21012;-74
2022/05/20 00:58:49;;;;;;;6.60;6.00;;;;;;;;;;4984567;28;20441;-74
2022/05/20 01:01:15;;;;;;;6.50;5.90;;;;;;;;;;4993447;28;20832;-75
2022/05/20 01:03:43;;;;;;;9.10;6.40;;;;;;;;;;4959913;28;20458;-74
2022/05/20 01:06:10;;;;;;;8.30;7.00;;;;;;;;;;4974395;28;20910;-74
2022/05/20 01:08:40;;;;;;;6.67;6.07;;;;;;;;;;4979896;28;20450;-74
2022/05/20 01:11:07;;;;;;;6.87;6.20;;;;;;;;;;4986121;28;20465;-74
2022/05/20 01:13:34;;;;;;;7.30;6.20;;;;;;;;;;4988897;28;20454;-74
2022/05/20 01:16:02;;;;;;;7.23;6.57;;;;;;;;;;4988580;28;20434;-74
2022/05/20 01:18:30;;;;;;;7.37;6.53;;;;;;;;;;4963196;28;20466;-74
2022/05/20 01:20:57;;;;;;;6.43;5.83;;;;;;;;;;4960702;28;20870;-75
2022/05/20 01:23:26;;;;;;;7.10;6.40;;;;;;;;;;4975057;28;20473;-74
2022/05/20 01:25:54;;;;;;;8.20;6.53;;;;;;;;;;4987325;28;20434;-75
2022/05/20 01:28:22;;;;;;;8.30;6.60;;;;;;;;;;4961567;28;20472;-75
2022/05/20 01:30:50;;;;;;;7.80;6.43;;;;;;;;;;4987086;28;20442;-75
2022/05/20 01:33:19;;;;;;;7.50;6.40;;;;;;;;;;4996245;28;20442;-75
2022/05/20 01:35:47;;;;;;;6.40;5.80;;;;;;;;;;4995896;28;20434;-74
2022/05/20 01:38:14;;;;;;;6.43;5.83;;;;;;;;;;4985615;28;20473;-74
2022/05/20 01:40:44;;;;;;;9.23;6.93;;;;;;;;;;4975539;28;20560;-74
2022/05/20 01:43:15;;;;;;;6.50;5.90;;;;;;;;;;4992907;28;20488;-74
2022/05/20 01:45:44;;;;;;;6.47;5.90;;;;;;;;;;4976533;28;20452;-74
2022/05/20 01:48:12;;;;;;;8.30;6.60;;;;;;;;;;4966264;28;20586;-74
2022/05/20 01:50:41;;;;;;;6.90;6.30;;;;;;;;;;4992670;28;20513;-74
2022/05/20 01:53:09;;;;;;;7.30;6.60;;;;;;;;;;4993104;28;20545;-74
2022/05/20 01:55:39;;;;;;;7.17;6.47;;;;;;;;;;4992711;28;20433;-74
2022/05/20 01:58:11;;;;;;;7.50;6.80;;;;;;;;;;4987724;28;20579;-74
2022/05/20 02:00:39;;;;;;;6.60;6.10;;;;;;;;;;4974909;28;23452;-75
2022/05/20 02:03:09;;;;;;;7.83;7.03;;;;;;;;;;4983469;28;20491;-75
2022/05/20 02:05:46;;;;;;;7.80;7.10;;;;;;;;;;4990350;28;20453;-74
2022/05/20 02:08:21;;;;;;;7.57;6.83;;;;;;;;;;4975049;28;20442;-74
2022/05/20 02:10:50;;;;;;;7.30;6.40;;;;;;;;;;4968286;28;20519;-74
2022/05/20 02:13:18;;;;;;;7.80;7.10;;;;;;;;;;4992466;28;20480;-74
2022/05/20 02:15:47;;;;;;;7.33;6.63;;;;;;;;;;4960461;28;20541;-75
2022/05/20 02:18:15;;;;;;;7.53;6.67;;;;;;;;;;4955455;28;20530;-74
2022/05/20 02:20:43;;;;;;;6.83;6.27;;;;;;;;;;4987734;28;20446;-74
2022/05/20 02:23:12;;;;;;;7.20;6.20;;;;;;;;;;4992653;28;20520;-74
2022/05/20 02:25:39;;;;;;;7.40;6.70;;;;;;;;;;4973152;28;20457;-74
2022/05/20 02:28:08;;;;;;;10.00;7.37;;;;;;;;;;4974570;28;20461;-74
2022/05/20 02:30:37;;;;;;;8.70;6.50;;;;;;;;;;4992164;28;20515;-74
2022/05/20 02:33:06;;;;;;;7.67;6.93;;;;;;;;;;4989153;28;20454;-74
2022/05/20 02:35:32;;;;;;;6.67;6.07;;;;;;;;;;4985351;28;20454;-75
2022/05/20 02:38:04;;;;;;;7.10;6.40;;;;;;;;;;4971237;28;20516;-74
2022/05/20 02:40:30;;;;;;;9.63;8.63;;;;;;;;;;4978586;28;20437;-74
2022/05/20 02:42:57;;;;;;;7.67;6.87;;;;;;;;;;4971480;28;20482;-74
2022/05/20 02:45:23;;;;;;;7.97;7.17;;;;;;;;;;4989501;28;20952;-75
2022/05/20 02:47:51;;;;;;;7.20;6.20;;;;;;;;;;4974300;28;20446;-74
2022/05/20 02:50:18;;;;;;;7.00;6.37;;;;;;;;;;4973041;28;20557;-74
2022/05/20 02:52:44;;;;;;;7.20;6.60;;;;;;;;;;4973949;28;20792;-74
2022/05/20 02:55:11;;;;;;;8.00;7.30;;;;;;;;;;4990382;28;20589;-75
2022/05/20 02:57:38;;;;;;;8.00;7.00;;;;;;;;;;4974410;28;20465;-74
2022/05/20 03:05:34;;;;;;;6.83;6.23;;;;;;;;;;4958801;28;20465;-74
2022/05/20 03:08:01;;;;;;;7.50;6.90;;;;;;;;;;4955192;28;20994;-74
2022/05/20 03:10:27;;;;;;;7.60;6.90;;;;;;;;;;4973835;28;20445;-74
2022/05/20 03:12:58;;;;;;;9.97;7.30;;;;;;;;;;4990744;28;20445;-74
2022/05/20 03:15:24;;;;;;;8.93;7.77;;;;;;;;;;4991371;28;20828;-75
2022/05/20 03:17:52;;;;;;;8.73;7.73;;;;;;;;;;4973199;28;20512;-75
2022/05/20 03:20:19;;;;;;;8.23;7.43;;;;;;;;;;4991499;28;20865;-75
2022/05/20 03:22:45;;;;;;;7.83;6.83;;;;;;;;;;4961812;28;20839;-74
2022/05/20 03:25:12;;;;;;;8.80;7.30;;;;;;;;;;4957020;28;20940;-75
2022/05/20 03:27:38;;;;;;;7.50;6.70;;;;;;;;;;4990982;28;20834;-75
2022/05/20 03:30:05;;;;;;;7.60;6.80;;;;;;;;;;4996057;28;20437;-75
2022/05/20 03:32:32;;;;;;;7.93;7.10;;;;;;;;;;4999906;28;20770;-74
2022/05/20 03:35:00;;;;;;;7.90;7.17;;;;;;;;;;4975987;28;20571;-74
2022/05/20 03:37:27;;;;;;;8.30;7.50;;;;;;;;;;4995041;28;20547;-74
2022/05/20 03:39:55;;;;;;;8.30;7.60;;;;;;;;;;4977003;28;20508;-74
2022/05/20 03:42:22;;;;;;;7.80;7.10;;;;;;;;;;4995591;28;20558;-74
2022/05/20 03:44:48;;;;;;;9.53;7.27;;;;;;;;;;4978462;28;20543;-75
2022/05/20 03:47:15;;;;;;;8.40;7.50;;;;;;;;;;4977614;28;20449;-74
2022/05/20 03:49:42;;;;;;;8.40;7.60;;;;;;;;;;4976195;28;20583;-74
2022/05/20 03:52:10;;;;;;;9.00;8.20;;;;;;;;;;4995224;28;20499;-74
2022/05/20 03:54:37;;;;;;;7.80;7.00;;;;;;;;;;4977993;28;20441;-74
2022/05/20 03:57:05;;;;;;;8.10;7.30;;;;;;;;;;4992901;28;20491;-74
2022/05/20 03:59:33;;;;;;;8.87;7.87;;;;;;;;;;4994350;28;20470;-74
2022/05/20 04:01:59;;;;;;;8.73;7.83;;;;;;;;;;4973824;28;20906;-74
2022/05/20 04:04:27;;;;;;;14.37;7.87;;;;;;;;;;4996432;28;20481;-74
2022/05/20 04:06:53;;;;;;;9.73;8.67;;;;;;;;;;5008441;28;20200;-74
2022/05/20 04:09:21;;;;;;;7.93;7.23;;;;;;;;;;4976779;28;20800;-74
2022/05/20 04:11:49;;;;;;;8.03;7.23;;;;;;;;;;4994144;28;20523;-74
2022/05/20 04:14:16;;;;;;;8.80;7.90;;;;;;;;;;4967215;28;20510;-74
2022/05/20 04:16:42;;;;;;;8.20;7.23;;;;;;;;;;4976972;28;20535;-74
2022/05/20 04:19:09;;;;;;;7.70;7.00;;;;;;;;;;4994251;28;20453;-74
2022/05/20 04:21:36;;;;;;;8.13;7.33;;;;;;;;;;4976241;28;20503;-77
2022/05/20 04:24:02;;;;;;;8.00;7.23;;;;;;;;;;4977629;28;20879;-77
2022/05/20 04:26:30;;;;;;;8.67;7.77;;;;;;;;;;4995052;28;20623;-77
2022/05/20 04:28:57;;;;;;;10.10;7.53;;;;;;;;;;4992867;28;20457;-78
2022/05/20 04:31:23;;;;;;;8.27;7.37;;;;;;;;;;4957703;28;20438;-77
2022/05/20 04:33:50;;;;;;;8.87;7.97;;;;;;;;;;4983835;28;20473;-77
2022/05/20 04:36:16;;;;;;;8.70;7.80;;;;;;;;;;4976000;28;20476;-77
2022/05/20 04:38:43;;;;;;;8.40;7.50;;;;;;;;;;4993781;28;20449;-77
2022/05/20 04:49:23;;;;;;;8.30;7.50;;;;;;;;;;4989885;28;20485;-78
2022/05/20 04:51:49;;;;;;;9.83;7.60;;;;;;;;;;4977800;28;20451;-78
2022/05/20 04:57:00;;;;;;;8.37;7.20;;;;;;;;;;4993548;28;20520;-78
2022/05/20 04:59:28;;;;;;;7.67;6.93;;;;;;;;;;4975643;28;20454;-78
2022/05/20 05:01:54;;;;;;;7.80;6.80;;;;;;;;;;4978110;28;20438;-78
2022/05/20 05:04:21;;;;;;;7.30;6.50;;;;;;;;;;4981081;28;20894;-80
2022/05/20 05:06:48;;;;;;;9.40;6.53;;;;;;;;;;4959856;28;20440;-79
2022/05/20 05:09:15;;;;;;;6.90;6.23;;;;;;;;;;4968868;28;20928;-80
2022/05/20 05:11:41;;;;;;;6.33;5.83;;;;;;;;;;4968568;28;20453;-79
2022/05/20 05:14:08;;;;;;;7.00;6.40;;;;;;;;;;4982446;28;20723;-79
2022/05/20 05:16:36;;;;;;;6.30;5.70;;;;;;;;;;4976133;28;20457;-79
2022/05/20 05:19:03;;;;;;;6.50;5.90;;;;;;;;;;4992101;28;20755;-80
2022/05/20 05:21:29;;;;;;;6.70;5.97;;;;;;;;;;4963397;28;21006;-79
2022/05/20 05:23:56;;;;;;;8.43;6.33;;;;;;;;;;4982666;28;20449;-80
2022/05/20 05:26:22;;;;;;;8.70;6.40;;;;;;;;;;4989616;28;20441;-80
2022/05/20 05:28:49;;;;;;;6.73;6.13;;;;;;;;;;4985757;28;21352;-81
2022/05/20 05:31:16;;;;;;;7.77;6.20;;;;;;;;;;4982261;28;20500;-80
2022/05/20 05:33:44;;;;;;;6.57;5.87;;;;;;;;;;4956732;28;20484;-80
2022/05/20 05:36:11;;;;;;;7.10;6.50;;;;;;;;;;5002539;28;20468;-80
2022/05/20 05:38:38;;;;;;;6.20;5.70;;;;;;;;;;4981230;28;20433;-80
2022/05/20 05:41:05;;;;;;;7.70;6.27;;;;;;;;;;4973187;28;20473;-81
2022/05/20 05:43:31;;;;;;;7.13;5.90;;;;;;;;;;4970640;28;20468;-80
2022/05/20 05:45:58;;;;;;;7.10;5.93;;;;;;;;;;4983338;28;20460;-80
2022/05/20 05:48:24;;;;;;;6.30;5.63;;;;;;;;;;4987078;28;20913;-77
2022/05/20 05:50:55;;;;;;;8.30;6.70;;;;;;;;;;4957626;28;20843;-77
2022/05/20 05:53:24;;;;;;;8.23;6.43;;;;;;;;;;4971789;28;20813;-77
2022/05/20 05:55:56;;;;;;;7.47;6.70;;;;;;;;;;4979991;28;20842;-77
2022/05/20 05:58:26;;;;;;;7.40;6.67;;;;;;;;;;4990678;28;20552;-77
2022/05/20 06:00:54;;;;;;;7.70;6.90;;;;;;;;;;4957442;28;20512;-77
2022/05/20 06:03:21;;;;;;;7.60;6.20;;;;;;;;;;4984488;28;20446;-77
2022/05/20 06:05:52;;;;;;;8.17;6.60;;;;;;;;;;4965705;28;20458;-77
2022/05/20 06:08:18;;;;;;;7.53;6.83;;;;;;;;;;4987700;28;20445;-77
2022/05/20 06:10:45;;;;;;;6.33;5.77;;;;;;;;;;4974445;28;20458;-77
2022/05/20 06:13:14;;;;;;;9.13;6.40;;;;;;;;;;4986856;28;20509;-77
2022/05/20 06:15:41;;;;;;;8.00;6.00;;;;;;;;;;4972697;28;20515;-78
2022/05/20 06:18:08;;;;;;;7.87;6.37;;;;;;;;;;4983705;28;20455;-78
2022/05/20 06:20:35;;;;;;;6.60;5.93;;;;;;;;;;4971463;28;20462;-77
2022/05/20 06:23:03;;;;;;;7.20;6.53;;;;;;;;;;4982154;28;20449;-76
2022/05/20 06:25:30;;;;;;;7.23;6.23;;;;;;;;;;4980989;28;20468;-76
2022/05/20 06:28:03;;;;;;;8.20;6.53;;;;;;;;;;4983959;28;20446;-76
2022/05/20 06:30:30;;;;;;;8.07;7.20;;;;;;;;;;4971399;28;20458;-76
2022/05/20 06:33:02;;;;;;;8.03;6.07;;;;;;;;;;4987321;28;20446;-76
2022/05/20 06:40:59;;;;;;;7.67;6.80;;;;;;;;;;4966282;28;20431;-76
2022/05/20 06:43:26;;;;;;;9.70;6.63;;;;;;;;;;4966261;28;20461;-76
2022/05/20 06:45:55;;;;;;;8.63;5.93;;;;;;;;;;4974909;28;20948;-76
2022/05/20 06:48:22;;;;;;;6.60;5.80;;;;;;;;;;4967076;28;20536;-76
2022/05/20 06:50:48;;;;;;;9.97;7.13;;;;;;;;;;4982664;28;20474;-76
2022/05/20 06:53:16;;;;;;;7.50;6.40;;;;;;;;;;4971330;28;20482;-76
2022/05/20 06:55:43;;;;;;;7.47;6.67;;;;;;;;;;4988754;28;20917;-76
2022/05/20 06:58:09;;;;;;;6.03;5.43;;;;;;;;;;4971532;28;20446;-76
2022/05/20 07:00:36;;;;;;;6.57;5.37;;;;;;;;;;4984945;28;20453;-76
2022/05/20 07:03:02;;;;;;;6.30;5.07;;;;;;;;;;4956282;28;20468;-76
2022/05/20 07:05:29;;;;;;;7.03;6.10;;;;;;;;;;4982059;28;20980;-76
2022/05/20 07:07:56;;;;;;;5.93;5.30;;;;;;;;;;4978023;28;20481;-76
2022/05/20 07:10:24;;;;;;;6.70;6.00;;;;;;;;;;4985275;28;20513;-77
2022/05/20 07:12:51;;;;;;;6.30;5.70;;;;;;;;;;4953056;28;20456;-76
2022/05/20 07:15:17;;;;;;;5.97;5.47;;;;;;;;;;4989291;28;20588;-76
2022/05/20 07:17:49;;;;;;;6.60;5.77;;;;;;;;;;4973302;28;20480;-75
2022/05/20 07:20:48;;;;;;;7.47;5.83;;;;;;;;;;4967470;28;20454;-75
2022/05/20 07:23:14;;;;;;;7.13;5.87;;;;;;;;;;4974378;28;20512;-76
2022/05/20 07:25:42;;;;;;;6.77;6.17;;;;;;;;;;4981045;28;20540;-76
2022/05/20 07:28:08;;;;;;;8.13;5.80;;;;;;;;;;4990546;28;20465;-78
2022/05/20 07:30:36;;;;;;;5.80;5.30;;;;;;;;;;4976808;28;20446;-76
2022/05/20 07:33:02;;;;;;;6.70;6.10;;;;;;;;;;4971251;28;20929;-77
2022/05/20 07:35:29;;;;;;;9.93;5.83;;;;;;;;;;4969409;28;20512;-78
2022/05/20 07:37:55;;;;;;;6.17;5.67;;;;;;;;;;4992799;28;20781;-77
2022/05/20 07:40:22;;;;;;;7.10;6.40;;;;;;;;;;4972229;28;20637;-77
2022/05/20 07:42:51;;;;;;;5.90;5.30;;;;;;;;;;4980834;28;20468;-75
2022/05/20 07:45:17;;;;;;;6.20;5.60;;;;;;;;;;4950200;28;20443;-75
2022/05/20 07:47:44;;;;;;;6.20;5.60;;;;;;;;;;4972330;28;20446;-75
2022/05/20 07:50:12;;;;;;;6.30;5.70;;;;;;;;;;4979569;28;20482;-75
2022/05/20 07:55:24;;;;;;;7.70;5.33;;;;;;;;;;4981321;28;20468;-76
2022/05/20 07:57:52;;;;;;;6.43;5.27;;;;;;;;;;4982120;28;20493;-76
2022/05/20 08:00:19;;;;;;;7.50;5.83;;;;;;;;;;4960282;28;20806;-76
2022/05/20 08:02:46;;;;;;;6.53;5.73;;;;;;;;;;4974534;28;20512;-76
2022/05/20 08:05:11;;;;;;;6.70;6.10;;;;;;;;;;4989257;28;20804;-76
2022/05/20 08:07:40;;;;;;;6.50;5.90;;;;;;;;;;4954427;28;20453;-76
2022/05/20 08:10:08;;;;;;;9.43;6.50;;;;;;;;;;4965006;28;20209;-76
2022/05/20 08:12:34;;;;;;;10.73;6.03;;;;;;;;;;4972589;28;20552;-76
2022/05/20 08:15:02;;;;;;;6.10;5.50;;;;;;;;;;4959015;28;20939;-77
2022/05/20 08:17:29;;;;;;;6.93;6.33;;;;;;;;;;4974749;28;20476;-76
2022/05/20 08:19:56;;;;;;;6.23;5.73;;;;;;;;;;4994995;28;20913;-77
2022/05/20 08:22:23;;;;;;;6.57;5.97;;;;;;;;;;4995341;28;20460;-76
2022/05/20 08:24:52;;;;;;;5.93;5.43;;;;;;;;;;4971178;28;20483;-76
2022/05/20 08:27:19;;;;;;;6.30;5.70;;;;;;;;;;4971676;28;20455;-76
2022/05/20 08:29:45;;;;;;;6.60;5.90;;;;;;;;;;4973092;28;20433;-76
2022/05/20 08:32:15;;;;;;;5.83;5.33;;;;;;;;;;4984261;28;20964;-76
2022/05/20 08:34:42;;;;;;;8.03;5.60;;;;;;;;;;4979278;28;20474;-77
2022/05/20 08:37:08;;;;;;;6.70;6.00;;;;;;;;;;4990609;28;20476;-77
2022/05/20 08:39:35;;;;;;;9.20;5.73;;;;;;;;;;4994593;28;20536;-76
2022/05/20 08:42:01;;;;;;;6.40;5.90;;;;;;;;;;4994225;28;20438;-77
2022/05/20 08:44:29;;;;;;;6.03;5.43;;;;;;;;;;4959389;28;20813;-77
2022/05/20 08:47:07;;;;;;;7.90;6.20;;;;;;;;;;4977720;28;20797;-77
2022/05/20 08:49:37;;;;;;;6.60;5.80;;;;;;;;;;4948576;28;20488;-77
2022/05/20 08:52:04;;;;;;;7.07;6.17;;;;;;;;;;4970265;28;20793;-77
2022/05/20 08:54:31;;;;;;;6.23;5.63;;;;;;;;;;4988564;28;20887;-77
2022/05/20 08:56:58;;;;;;;6.17;5.63;;;;;;;;;;4992905;28;20485;-77
2022/05/20 08:59:24;;;;;;;6.93;5.60;;;;;;;;;;4960812;28;20781;-77
2022/05/20 09:01:52;;;;;;;6.40;5.80;;;;;;;;;;4990290;28;20448;-77
2022/05/20 09:04:21;;;;;;;6.27;5.53;;;;;;;;;;4984837;28;20551;-77
2022/05/20 09:07:00;;;;;;;6.20;5.60;;;;;;;;;;4968046;28;20531;-77
2022/05/20 09:09:27;;;;;;;6.67;6.07;;;;;;;;;;4994378;28;20444;-77
2022/05/20 09:11:55;;;;;;;6.47;5.87;;;;;;;;;;4988819;28;20445;-77
2022/05/20 09:17:09;;;;;;;6.53;5.93;;;;;;;;;;4975647;28;20652;-77
2022/05/20 09:19:35;;;;;;;5.97;5.47;;;;;;;;;;4962948;28;20477;-77
2022/05/20 09:22:05;;;;;;;5.90;5.27;;;;;;;;;;4981826;28;20445;-77
2022/05/20 09:24:36;;;;;;;7.60;5.80;;;;;;;;;;4985696;28;20437;-77
2022/05/20 09:27:04;;;;;;;5.83;5.33;;;;;;;;;;4948050;28;20484;-77
2022/05/20 09:29:33;;;;;;;5.80;5.30;;;;;;;;;;4983036;28;20482;-77
2022/05/20 09:32:01;;;;;;;6.40;5.20;;;;;;;;;;4979509;28;20473;-76
2022/05/20 09:34:32;;;;;;;7.47;5.47;;;;;;;;;;4985544;28;20501;-77
2022/05/20 09:37:00;;;;;;;6.10;5.60;;;;;;;;;;4945663;28;20449;-78
2022/05/20 09:39:30;;;;;;;6.40;5.70;;;;;;;;;;4978399;28;20437;-77
2022/05/20 09:41:58;;;;;;;5.60;5.00;;;;;;;;;;4980559;28;20456;-78
2022/05/20 09:44:26;;;;;;;6.80;5.50;;;;;;;;;;4964482;28;20438;-76
2022/05/20 09:46:55;;;;;;;5.43;5.03;;;;;;;;;;4973835;28;20430;-78
2022/05/20 09:49:29;;;;;;;5.87;5.33;;;;;;;;;;4984704;28;20581;-76
2022/05/20 09:51:57;;;;;;;6.93;5.43;;;;;;;;;;4969516;28;20798;-77
2022/05/20 09:54:26;;;;;;;7.10;5.40;;;;;;;;;;4956170;28;20449;-78
2022/05/20 09:57:04;;;;;;;8.40;5.40;;;;;;;;;;4982049;28;20444;-78
2022/05/20 09:59:34;;;;;;;8.80;5.83;;;;;;;;;;4954426;28;20549;-78
2022/05/20 10:02:03;;;;;;;6.20;5.03;;;;;;;;;;4970277;28;20453;-78
2022/05/20 10:04:38;;;;;;;7.13;5.63;;;;;;;;;;4965115;28;20627;-78
2022/05/20 10:07:10;;;;;;;8.43;5.10;;;;;;;;;;4986797;28;20469;-78
2022/05/20 10:09:40;;;;;;;6.50;5.87;;;;;;;;;;4976085;28;20446;-78
2022/05/20 10:12:11;;;;;;;7.27;5.50;;;;;;;;;;4989033;28;20445;-78
2022/05/20 10:14:42;;;;;;;6.07;5.57;;;;;;;;;;4988452;28;20430;-77
2022/05/20 10:17:14;;;;;;;6.90;5.70;;;;;;;;;;4959348;28;20552;-78
2022/05/20 10:19:43;;;;;;;10.47;6.20;;;;;;;;;;4985202;28;20928;-78
2022/05/20 10:22:14;;;;;;;7.10;5.63;;;;;;;;;;4969905;28;20449;-77
2022/05/20 10:24:47;;;;;;;9.67;5.80;;;;;;;;;;4966312;28;20980;-77
2022/05/20 10:27:17;;;;;;;8.27;5.53;;;;;;;;;;4963640;28;20516;-77
2022/05/20 10:32:35;;;;;;;5.70;4.30;;;;;;;;;;4963435;28;20444;-77
2022/05/20 10:35:03;;;;;;;5.43;4.80;;;;;;;;;;4970132;28;20438;-77
2022/05/20 10:37:34;;;;;;;6.37;5.43;;;;;;;;;;4961117;28;20819;-77
2022/05/20 10:40:15;;;;;;;8.10;5.07;;;;;;;;;;4990595;28;20543;-75
2022/05/20 10:42:51;;;;;;;6.23;4.90;;;;;;;;;;4976606;28;20448;-75
2022/05/20 10:50:56;;;;;;;5.63;5.13;;;;;;;;;;4942946;28;20508;-77
2022/05/20 10:53:28;;;;;;;4.93;4.43;;;;;;;;;;4974593;28;20444;-77
2022/05/20 10:56:01;;;;;;;6.80;4.90;;;;;;;;;;4975494;28;20453;-74
2022/05/20 10:58:45;;;;;;;5.07;4.57;;;;;;;;;;4982284;28;20508;-77
2022/05/20 11:01:17;;;;;;;5.10;4.60;;;;;;;;;;4981564;28;20441;-77
2022/05/20 11:04:00;;;;;;;6.70;5.30;;;;;;;;;;4973376;28;20492;-74
2022/05/20 11:06:50;;;;;;;6.63;4.80;;;;;;;;;;4963588;28;20493;-77
2022/05/20 11:09:19;;;;;;;7.13;4.90;;;;;;;;;;4937933;28;20968;-77
2022/05/20 11:11:54;;;;;;;6.57;5.47;;;;;;;;;;5005989;28;20462;-77
2022/05/20 11:14:36;;;;;;;5.17;4.77;;;;;;;;;;4996634;28;20535;-77
2022/05/20 11:17:23;;;;;;;5.97;4.90;;;;;;;;;;4942735;28;20512;-77
2022/05/20 11:20:04;;;;;;;7.13;5.30;;;;;;;;;;4985547;28;20822;-77
2022/05/20 11:23:03;;;;;;;5.33;4.83;;;;;;;;;;4982134;28;20506;-77
2022/05/20 11:25:34;;;;;;;5.93;5.13;;;;;;;;;;4908435;29;20862;-77
2022/05/20 11:28:08;;;;;;;5.40;4.90;;;;;;;;;;4914612;29;20527;-75
2022/05/20 11:30:46;;;;;;;6.93;5.40;;;;;;;;;;4941212;28;20441;-75
2022/05/20 11:33:23;;;;;;;6.70;5.70;;;;;;;;;;4980164;28;20461;-76
2022/05/20 11:36:06;;;;;;;6.83;5.07;;;;;;;;;;4970323;28;20537;-75
2022/05/20 11:38:46;;;;;;;8.80;5.40;;;;;;;;;;4955046;28;20630;-75
2022/05/20 11:41:17;;;;;;;6.20;5.60;;;;;;;;;;4977262;28;20438;-75
2022/05/20 11:43:51;;;;;;;6.00;5.40;;;;;;;;;;4959674;28;20430;-75
2022/05/20 11:46:26;;;;;;;6.80;4.83;;;;;;;;;;4971074;28;20467;-75
2022/05/20 11:49:07;;;;;;;6.13;5.30;;;;;;;;;;4989909;28;20441;-77
2022/05/20 11:51:49;;;;;;;7.00;5.47;;;;;;;;;;4974364;28;20552;-77
2022/05/20 11:54:18;;;;;;;7.00;5.43;;;;;;;;;;4989364;28;20982;-77
2022/05/20 11:56:48;;;;;;;6.20;5.50;;;;;;;;;;4987763;28;20468;-75
2022/05/20 11:59:17;;;;;;;8.30;5.00;;;;;;;;;;4975308;28;20846;-75
2022/05/20 12:01:45;;;;;;;7.83;5.17;;;;;;;;;;4993573;28;20441;-75
2022/05/20 12:04:13;;;;;;;5.50;4.70;;;;;;;;;;4970694;28;20434;-75
2022/05/20 12:06:42;;;;;;;5.60;5.10;;;;;;;;;;4976218;28;20997;-75
2022/05/20 12:09:24;;;;;;;7.30;5.97;;;;;;;;;;4989637;28;20464;-77
2022/05/20 12:12:08;;;;;;;6.97;4.73;;;;;;;;;;4981149;28;20453;-78
2022/05/20 12:14:58;;;;;;;5.67;4.63;;;;;;;;;;4964372;28;21004;-77
2022/05/20 12:17:29;;;;;;;4.43;4.03;;;;;;;;;;4991174;28;20553;-78
2022/05/20 12:25:37;;;;;;;6.77;4.70;;;;;;;;;;4952499;28;20968;-77
2022/05/20 12:28:05;;;;;;;5.53;5.03;;;;;;;;;;4965528;28;20462;-75
2022/05/20 12:30:37;;;;;;;5.90;4.83;;;;;;;;;;4960614;28;20973;-77
2022/05/20 12:33:20;;;;;;;5.13;4.63;;;;;;;;;;4983928;28;20598;-75
2022/05/20 12:39:13;;;;;;;5.77;5.17;;;;;;;;;;4945527;28;21008;-75
2022/05/20 12:57:52;;;;;;;5.17;4.67;;;;;;;;;;4878430;29;20462;-80
2022/05/20 13:00:56;;;;;;;8.67;4.90;;;;;;;;;;4890894;29;20576;-80
2022/05/20 13:03:48;;;;;;;6.43;4.57;;;;;;;;;;4874822;29;20489;-80
2022/05/20 13:06:32;;;;;;;6.43;5.50;;;;;;;;;;4912012;29;20531;-80
2022/05/20 13:09:18;;;;;;;7.73;4.80;;;;;;;;;;4852345;29;20453;-80
2022/05/20 13:12:13;;;;;;;6.77;4.73;;;;;;;;;;4876201;29;20848;-80
2022/05/20 13:15:27;;;;;;;5.87;4.47;;;;;;;;;;4855225;29;21024;-80
2022/05/20 13:21:16;;;;;;;5.13;4.63;;;;;;;;;;4858038;29;20461;-80
2022/05/20 13:24:14;;;;;;;5.97;4.20;;;;;;;;;;4857886;29;20513;-81
2022/05/20 13:26:51;;;;;;;4.90;3.93;;;;;;;;;;4838569;29;20846;-80
2022/05/20 13:33:05;;;;;;;6.40;4.90;;;;;;;;;;4839609;29;20448;-80
2022/05/20 13:35:57;;;;;;;6.17;5.03;;;;;;;;;;4836851;29;20483;-80
2022/05/20 13:38:28;;;;;;;4.73;4.07;;;;;;;;;;4854315;29;20521;-80
2022/05/20 13:40:57;;;;;;;5.27;4.23;;;;;;;;;;4855280;29;20440;-80
2022/05/20 13:43:27;;;;;;;5.47;4.57;;;;;;;;;;4832314;29;20966;-81
2022/05/20 13:51:38;;;;;;;4.87;4.37;;;;;;;;;;4875669;29;20647;-80
2022/05/20 13:54:06;;;;;;;6.73;4.53;;;;;;;;;;4873158;29;20594;-80
2022/05/20 13:56:35;;;;;;;4.83;4.33;;;;;;;;;;4874085;29;20490;-80
2022/05/20 13:59:19;;;;;;;5.33;4.77;;;;;;;;;;4872228;29;20466;-75
2022/05/20 14:01:51;;;;;;;6.60;4.90;;;;;;;;;;4857846;29;20447;-76
2022/05/20 14:04:30;;;;;;;8.33;4.83;;;;;;;;;;4884206;29;21055;-76
2022/05/20 14:06:59;;;;;;;9.40;4.70;;;;;;;;;;4875008;29;20481;-76
2022/05/20 14:09:25;;;;;;;6.03;5.43;;;;;;;;;;4875694;29;20447;-75
2022/05/20 14:11:53;;;;;;;6.07;4.40;;;;;;;;;;4911778;29;20828;-76
2022/05/20 14:14:22;;;;;;;6.53;4.70;;;;;;;;;;4914856;29;21024;-80
2022/05/20 14:16:51;;;;;;;8.03;4.70;;;;;;;;;;4915790;29;20448;-79
2022/05/20 14:19:36;;;;;;;7.83;5.00;;;;;;;;;;4895265;29;20464;-80
2022/05/20 14:22:15;;;;;;;5.83;4.63;;;;;;;;;;4878616;29;20473;-80
2022/05/20 14:24:54;;;;;;;5.40;4.60;;;;;;;;;;4915955;29;20548;-79
2022/05/20 14:27:39;;;;;;;5.60;4.50;;;;;;;;;;4915626;29;20477;-80
2022/05/20 14:30:19;;;;;;;6.03;4.67;;;;;;;;;;4915058;29;20481;-79
2022/05/20 14:32:47;;;;;;;7.73;4.63;;;;;;;;;;4915540;29;20901;-79
2022/05/20 14:35:28;;;;;;;5.33;4.63;;;;;;;;;;4899194;29;20513;-79
2022/05/20 14:38:07;;;;;;;7.13;5.20;;;;;;;;;;4915505;29;20956;-79
2022/05/20 14:40:42;;;;;;;9.27;4.80;;;;;;;;;;4917444;29;20964;-80
2022/05/20 14:43:21;;;;;;;4.97;4.37;;;;;;;;;;4929477;29;20452;-79
2022/05/20 14:45:51;;;;;;;8.07;4.73;;;;;;;;;;4925116;29;20464;-79
2022/05/20 14:48:22;;;;;;;5.77;4.77;;;;;;;;;;4898538;29;20449;-79
2022/05/20 14:50:49;;;;;;;7.33;4.57;;;;;;;;;;4897508;29;20944;-79
2022/05/20 14:53:24;;;;;;;8.30;5.70;;;;;;;;;;4897242;29;20690;-79
2022/05/20 14:55:52;;;;;;;10.87;5.80;;;;;;;;;;4912669;29;20453;-79
2022/05/20 14:58:27;;;;;;;7.97;5.50;;;;;;;;;;4904995;29;20453;-81
2022/05/20 15:00:55;;;;;;;6.50;5.80;;;;;;;;;;4901028;29;20828;-79
2022/05/20 15:03:23;;;;;;;9.83;6.20;;;;;;;;;;4903360;29;20800;-79
2022/05/20 15:05:51;;;;;;;8.20;6.27;;;;;;;;;;4898372;29;20473;-76
2022/05/20 15:08:27;;;;;;;7.37;6.43;;;;;;;;;;4911806;29;20548;-75
2022/05/20 15:10:55;;;;;;;8.43;6.43;;;;;;;;;;4928345;29;20564;-76
2022/05/20 15:13:22;;;;;;;8.10;6.63;;;;;;;;;;4913718;29;20951;-75
2022/05/20 15:15:52;;;;;;;10.00;6.50;;;;;;;;;;4897968;29;20514;-75
2022/05/20 15:18:19;;;;;;;6.87;5.60;;;;;;;;;;4915489;29;20441;-75
2022/05/20 15:20:47;;;;;;;8.13;5.57;;;;;;;;;;4914503;29;20564;-76
2022/05/20 15:23:18;;;;;;;14.77;6.57;;;;;;;;;;4914109;29;20460;-76
2022/05/20 15:25:50;;;;;;;10.10;6.30;;;;;;;;;;4925381;29;20849;-75
2022/05/20 15:36:30;;;;;;;7.90;6.13;;;;;;;;;;4914436;29;20495;-75
2022/05/20 15:38:57;;;;;;;6.37;5.27;;;;;;;;;;4913636;29;20461;-75
2022/05/20 15:41:32;;;;;;;7.00;6.07;;;;;;;;;;4913419;29;20441;-75
2022/05/20 15:44:05;;;;;;;7.80;5.77;;;;;;;;;;4912162;29;20472;-76
2022/05/20 15:46:31;;;;;;;6.80;6.00;;;;;;;;;;4920667;29;20509;-76
2022/05/20 15:48:58;;;;;;;10.03;6.07;;;;;;;;;;4901163;29;20462;-76
2022/05/20 15:51:25;;;;;;;6.70;6.10;;;;;;;;;;4913688;29;20485;-76
2022/05/20 15:53:52;;;;;;;6.97;5.90;;;;;;;;;;4896916;29;20550;-76
2022/05/20 15:56:19;;;;;;;11.80;7.07;;;;;;;;;;4897241;29;20488;-76
2022/05/20 15:58:49;;;;;;;7.83;6.17;;;;;;;;;;4910757;29;20496;-76
2022/05/20 16:01:15;;;;;;;7.50;5.63;;;;;;;;;;4895266;29;20460;-76
2022/05/20 16:03:42;;;;;;;6.17;5.63;;;;;;;;;;4881295;29;20875;-76
2022/05/20 16:06:13;;;;;;;6.10;5.50;;;;;;;;;;4896530;29;20563;-76
2022/05/20 16:08:39;;;;;;;11.80;6.23;;;;;;;;;;4897175;29;20980;-76
2022/05/20 16:11:06;;;;;;;8.90;5.37;;;;;;;;;;4888867;29;20459;-76
2022/05/20 16:13:33;;;;;;;7.30;6.23;;;;;;;;;;4912816;29;20465;-76
2022/05/20 16:16:01;;;;;;;9.87;6.00;;;;;;;;;;4909677;29;20452;-76
2022/05/20 16:18:27;;;;;;;9.57;6.30;;;;;;;;;;4903768;29;20453;-76
2022/05/20 16:21:03;;;;;;;11.03;6.20;;;;;;;;;;4896851;29;20449;-76
2022/05/20 16:23:32;;;;;;;9.80;5.80;;;;;;;;;;4912361;29;20464;-76